Time,TemperatureF,DewpointF,PressureIn,WindDirection,WindDirectionDegrees,WindSpeedMPH,WindSpeedGustMPH,Humidity,HourlyPrecipIn,Conditions,Clouds,dailyrainin,SoftwareType,DateUTC
2013-03-17 00:11:00,28.1,17.0,29.89,NNW,343,5.0,9.0,63,0.00,,,0.00,weatherlink.com 1.10,2013-03-17 04:11:00,
2013-03-17 00:27:00,27.9,17.0,29.90,NW,324,5.0,13.0,62,0.00,,,0.00,weatherlink.com 1.10,2013-03-17 04:27:00,
2013-03-17 00:43:00,27.5,17.0,29.90,North,5,6.0,9.0,63,0.00,,,0.00,weatherlink.com 1.10,2013-03-17 04:43:00,
2013-03-17 00:58:00,27.2,16.0,29.90,West,280,4.0,8.0,63,0.00,,,0.00,weatherlink.com 1.10,2013-03-17 04:58:00,
2013-03-17 01:14:00,26.8,16.0,29.90,NW,305,3.0,8.0,62,0.00,,,0.00,weatherlink.com 1.10,2013-03-17 05:14:00,
2013-03-17 01:30:00,26.5,15.0,29.90,NW,312,1.0,6.0,61,0.00,,,0.00,weatherlink.com 1.10,2013-03-17 05:30:00,
2013-03-17 02:02:00,25.8,15.0,29.92,NNW,335,3.0,7.0,62,0.00,,,0.00,weatherlink.com 1.10,2013-03-17 06:02:00,
2013-03-17 02:18:00,25.5,14.0,29.93,West,264,0.0,7.0,62,0.00,,,0.00,weatherlink.com 1.10,2013-03-17 06:18:00,
2013-03-17 02:34:00,25.0,13.0,29.93,NNW,347,1.0,8.0,61,0.00,,,0.00,weatherlink.com 1.10,2013-03-17 06:34:00,
2013-03-17 02:49:00,24.6,14.0,29.94,NNW,328,1.0,6.0,63,0.00,,,0.00,weatherlink.com 1.10,2013-03-17 06:49:00,
2013-03-17 03:05:00,24.2,13.0,29.95,WNW,297,2.0,4.0,63,0.00,,,0.00,weatherlink.com 1.10,2013-03-17 07:05:00,
2013-03-17 03:21:00,23.9,13.0,29.95,WNW,301,3.0,7.0,64,0.00,,,0.00,weatherlink.com 1.10,2013-03-17 07:21:00,
2013-03-17 03:37:00,23.5,13.0,29.96,NW,309,2.0,8.0,64,0.00,,,0.00,weatherlink.com 1.10,2013-03-17 07:37:00,
2013-03-17 03:53:00,23.1,13.0,29.96,West,269,0.0,7.0,65,0.00,,,0.00,weatherlink.com 1.10,2013-03-17 07:53:00,
2013-03-17 04:09:00,22.7,13.0,29.96,West,280,0.0,3.0,66,0.00,,,0.00,weatherlink.com 1.10,2013-03-17 08:09:00,
2013-03-17 04:24:00,22.5,13.0,29.97,NW,321,9.0,10.0,66,0.00,,,0.00,weatherlink.com 1.10,2013-03-17 08:24:00,
2013-03-17 04:40:00,22.3,13.0,29.96,NW,326,5.0,11.0,66,0.00,,,0.00,weatherlink.com 1.10,2013-03-17 08:40:00,
2013-03-17 04:56:00,22.1,12.0,29.97,NNW,345,5.0,9.0,66,0.00,,,0.00,weatherlink.com 1.10,2013-03-17 08:56:00,
2013-03-17 05:12:00,21.8,12.0,29.97,NNW,341,2.0,7.0,66,0.00,,,0.00,weatherlink.com 1.10,2013-03-17 09:12:00,
2013-03-17 05:28:00,21.6,12.0,29.97,WNW,285,1.0,6.0,67,0.00,,,0.00,weatherlink.com 1.10,2013-03-17 09:28:00,
2013-03-17 05:43:00,21.2,12.0,29.97,WSW,242,0.0,4.0,67,0.00,,,0.00,weatherlink.com 1.10,2013-03-17 09:43:00,
2013-03-17 05:59:00,20.6,11.0,29.97,SSW,201,0.0,0.0,67,0.00,,,0.00,weatherlink.com 1.10,2013-03-17 09:59:00,
2013-03-17 06:15:00,20.0,11.0,29.99,SW,219,0.0,0.0,69,0.00,,,0.00,weatherlink.com 1.10,2013-03-17 10:15:00,
2013-03-17 06:31:00,20.3,12.0,30.00,NNW,347,0.0,1.0,69,0.00,,,0.00,weatherlink.com 1.10,2013-03-17 10:31:00,
2013-03-17 06:47:00,20.5,12.0,30.01,NNW,335,0.0,0.0,69,0.00,,,0.00,weatherlink.com 1.10,2013-03-17 10:47:00,
2013-03-17 07:03:00,21.2,12.0,30.03,WNW,291,0.0,3.0,68,0.00,,,0.00,weatherlink.com 1.10,2013-03-17 11:03:00,
2013-03-17 07:18:00,21.8,13.0,30.04,NW,307,0.0,2.0,67,0.00,,,0.00,weatherlink.com 1.10,2013-03-17 11:18:00,
2013-03-17 07:34:00,22.6,13.0,30.04,West,275,0.0,6.0,65,0.00,,,0.00,weatherlink.com 1.10,2013-03-17 11:34:00,
2013-03-17 07:50:00,22.8,13.0,30.05,NW,322,1.0,4.0,66,0.00,,,0.00,weatherlink.com 1.10,2013-03-17 11:50:00,
2013-03-17 08:06:00,23.1,13.0,30.05,NNW,328,1.0,2.0,65,0.00,,,0.00,weatherlink.com 1.10,2013-03-17 12:06:00,
2013-03-17 08:22:00,24.0,14.0,30.05,ENE,63,0.0,4.0,64,0.00,,,0.00,weatherlink.com 1.10,2013-03-17 12:22:00,
2013-03-17 08:38:00,24.7,15.0,30.06,NW,317,2.0,5.0,65,0.00,,,0.00,weatherlink.com 1.10,2013-03-17 12:38:00,
2013-03-17 08:53:00,25.3,16.0,30.07,NW,316,4.0,8.0,66,0.00,,,0.00,weatherlink.com 1.10,2013-03-17 12:53:00,
2013-03-17 09:09:00,25.4,15.0,30.07,NW,309,9.0,11.0,65,0.00,,,0.00,weatherlink.com 1.10,2013-03-17 13:09:00,
2013-03-17 09:25:00,25.8,15.0,30.08,WNW,283,1.0,12.0,63,0.00,,,0.00,weatherlink.com 1.10,2013-03-17 13:25:00,
2013-03-17 09:57:00,26.8,13.0,30.09,NNW,348,8.0,12.0,56,0.00,,,0.00,weatherlink.com 1.10,2013-03-17 13:57:00,
2013-03-17 10:14:00,27.3,12.0,30.09,WNW,287,1.0,11.0,53,0.00,,,0.00,weatherlink.com 1.10,2013-03-17 14:14:00,
2013-03-17 10:29:00,27.7,12.0,30.09,NNW,337,4.0,14.0,51,0.00,,,0.00,weatherlink.com 1.10,2013-03-17 14:29:00,
2013-03-17 10:44:00,28.1,13.0,30.10,WNW,293,2.0,10.0,52,0.00,,,0.00,weatherlink.com 1.10,2013-03-17 14:44:00,
2013-03-17 11:00:00,29.0,12.0,30.09,NNW,338,4.0,14.0,49,0.00,,,0.00,weatherlink.com 1.10,2013-03-17 15:00:00,
2013-03-17 11:16:00,29.3,12.0,30.09,WNW,290,4.0,14.0,48,0.00,,,0.00,weatherlink.com 1.10,2013-03-17 15:16:00,
2013-03-17 11:32:00,29.8,12.0,30.09,WNW,293,1.0,15.0,47,0.00,,,0.00,weatherlink.com 1.10,2013-03-17 15:32:00,
2013-03-17 11:48:00,30.9,12.0,30.10,NW,311,2.0,12.0,45,0.00,,,0.00,weatherlink.com 1.10,2013-03-17 15:48:00,
2013-03-17 12:04:00,31.2,11.0,30.10,NNW,345,4.0,16.0,42,0.00,,,0.00,weatherlink.com 1.10,2013-03-17 16:04:00,
2013-03-17 12:19:00,31.6,10.0,30.10,WNW,295,10.0,12.0,40,0.00,,,0.00,weatherlink.com 1.10,2013-03-17 16:19:00,
2013-03-17 12:35:00,32.4,10.0,30.10,NNW,332,6.0,17.0,38,0.00,,,0.00,weatherlink.com 1.10,2013-03-17 16:35:00,
2013-03-17 12:51:00,32.6,9.0,30.10,North,349,8.0,18.0,36,0.00,,,0.00,weatherlink.com 1.10,2013-03-17 16:51:00,
2013-03-17 13:07:00,33.5,9.0,30.10,NNW,338,11.0,14.0,36,0.00,,,0.00,weatherlink.com 1.10,2013-03-17 17:07:00,
2013-03-17 13:23:00,33.7,8.0,30.11,NNW,340,4.0,15.0,34,0.00,,,0.00,weatherlink.com 1.10,2013-03-17 17:23:00,
2013-03-17 13:38:00,34.5,8.0,30.10,WNW,295,2.0,21.0,33,0.00,,,0.00,weatherlink.com 1.10,2013-03-17 17:38:00,
2013-03-17 13:54:00,34.7,8.0,30.10,NNW,327,12.0,19.0,33,0.00,,,0.00,weatherlink.com 1.10,2013-03-17 17:54:00,
2013-03-17 14:10:00,35.0,9.0,30.10,NNW,340,8.0,14.0,34,0.00,,,0.00,weatherlink.com 1.10,2013-03-17 18:10:00,
2013-03-17 14:26:00,34.5,8.0,30.10,North,5,9.0,20.0,33,0.00,,,0.00,weatherlink.com 1.10,2013-03-17 18:26:00,
2013-03-17 14:42:00,34.7,8.0,30.10,North,349,2.0,17.0,33,0.00,,,0.00,weatherlink.com 1.10,2013-03-17 18:42:00,
2013-03-17 14:58:00,35.1,8.0,30.10,WNW,288,8.0,21.0,32,0.00,,,0.00,weatherlink.com 1.10,2013-03-17 18:58:00,
2013-03-17 15:13:00,35.3,8.0,30.11,NNW,337,9.0,20.0,32,0.00,,,0.00,weatherlink.com 1.10,2013-03-17 19:13:00,
2013-03-17 15:29:00,35.6,9.0,30.11,West,270,6.0,18.0,32,0.00,,,0.00,weatherlink.com 1.10,2013-03-17 19:29:00,
2013-03-17 15:45:00,35.0,7.0,30.11,WNW,293,14.0,16.0,31,0.00,,,0.00,weatherlink.com 1.10,2013-03-17 19:45:00,
2013-03-17 16:01:00,35.6,9.0,30.11,WNW,294,5.0,13.0,32,0.00,,,0.00,weatherlink.com 1.10,2013-03-17 20:01:00,
2013-03-17 16:17:00,35.0,8.0,30.11,NW,304,8.0,20.0,32,0.00,,,0.00,weatherlink.com 1.10,2013-03-17 20:17:00,
2013-03-17 16:33:00,35.5,9.0,30.11,WNW,300,12.0,17.0,32,0.00,,,0.00,weatherlink.com 1.10,2013-03-17 20:33:00,
2013-03-17 16:48:00,35.7,9.0,30.12,NNW,328,6.0,17.0,32,0.00,,,0.00,weatherlink.com 1.10,2013-03-17 20:48:00,
2013-03-17 17:04:00,35.8,9.0,30.13,WSW,240,7.0,17.0,32,0.00,,,0.00,weatherlink.com 1.10,2013-03-17 21:04:00,
2013-03-17 17:20:00,35.6,9.0,30.13,NNW,335,4.0,18.0,32,0.00,,,0.00,weatherlink.com 1.10,2013-03-17 21:20:00,
2013-03-17 17:36:00,35.5,9.0,30.14,North,354,13.0,13.0,33,0.00,,,0.00,weatherlink.com 1.10,2013-03-17 21:36:00,
2013-03-17 17:51:00,34.8,9.0,30.13,NNW,338,6.0,17.0,33,0.00,,,0.00,weatherlink.com 1.10,2013-03-17 21:51:00,
2013-03-17 18:08:00,34.3,8.0,30.15,SW,231,4.0,17.0,33,0.00,,,0.00,weatherlink.com 1.10,2013-03-17 22:08:00,
2013-03-17 18:23:00,33.7,8.0,30.15,NW,304,4.0,17.0,34,0.00,,,0.00,weatherlink.com 1.10,2013-03-17 22:23:00,
2013-03-17 18:39:00,33.0,8.0,30.16,NNW,328,3.0,13.0,35,0.00,,,0.00,weatherlink.com 1.10,2013-03-17 22:39:00,
2013-03-17 18:55:00,32.5,8.0,30.17,NE,46,10.0,16.0,36,0.00,,,0.00,weatherlink.com 1.10,2013-03-17 22:55:00,
2013-03-17 19:11:00,31.9,9.0,30.18,WNW,294,8.0,15.0,37,0.00,,,0.00,weatherlink.com 1.10,2013-03-17 23:11:00,
2013-03-17 19:26:00,31.4,9.0,30.19,NNW,338,5.0,12.0,38,0.00,,,0.00,weatherlink.com 1.10,2013-03-17 23:26:00,
2013-03-17 19:42:00,31.0,8.0,30.20,WNW,295,6.0,11.0,38,0.00,,,0.00,weatherlink.com 1.10,2013-03-17 23:42:00,
2013-03-17 19:58:00,30.7,8.0,30.20,West,281,3.0,11.0,38,0.00,,,0.00,weatherlink.com 1.10,2013-03-17 23:58:00,
2013-03-17 20:14:00,30.5,8.0,30.22,NW,305,3.0,13.0,38,0.00,,,0.00,weatherlink.com 1.10,2013-03-18 00:14:00,
2013-03-17 20:30:00,30.2,8.0,30.22,NNW,345,7.0,13.0,39,0.00,,,0.00,weatherlink.com 1.10,2013-03-18 00:30:00,
2013-03-17 21:02:00,29.4,9.0,30.24,North,352,0.0,11.0,41,0.00,,,0.00,weatherlink.com 1.10,2013-03-18 01:02:00,
2013-03-17 21:18:00,29.1,8.0,30.24,WNW,294,4.0,10.0,41,0.00,,,0.00,weatherlink.com 1.10,2013-03-18 01:18:00,
2013-03-17 21:33:00,28.8,8.0,30.25,NNW,333,3.0,13.0,41,0.00,,,0.00,weatherlink.com 1.10,2013-03-18 01:33:00,
2013-03-17 21:49:00,28.6,8.0,30.26,NNW,345,5.0,11.0,41,0.00,,,0.00,weatherlink.com 1.10,2013-03-18 01:49:00,
2013-03-17 22:05:00,28.4,8.0,30.27,NW,321,4.0,11.0,42,0.00,,,0.00,weatherlink.com 1.10,2013-03-18 02:05:00,
2013-03-17 22:21:00,28.0,8.0,30.28,NNW,347,2.0,7.0,42,0.00,,,0.00,weatherlink.com 1.10,2013-03-18 02:21:00,
2013-03-17 22:37:00,27.4,8.0,30.28,NNW,334,1.0,5.0,44,0.00,,,0.00,weatherlink.com 1.10,2013-03-18 02:37:00,
2013-03-17 22:53:00,27.1,9.0,30.28,NW,305,0.0,3.0,45,0.00,,,0.00,weatherlink.com 1.10,2013-03-18 02:53:00,
2013-03-17 23:08:00,26.9,9.0,30.29,NW,326,1.0,5.0,46,0.00,,,0.00,weatherlink.com 1.10,2013-03-18 03:08:00,
2013-03-17 23:24:00,26.2,8.0,30.29,NNW,332,0.0,3.0,46,0.00,,,0.00,weatherlink.com 1.10,2013-03-18 03:24:00,
2013-03-17 23:40:00,25.6,7.0,30.30,NNW,334,4.0,8.0,44,0.00,,,0.00,weatherlink.com 1.10,2013-03-18 03:40:00,